sensor_id;sensor_type;location;lat;lon;timestamp;temperature;humidity
74811;DHT22;63340;48.404;-4.506;2022-11-04T10:16:50;15.91;64.19
74811;DHT22;63340;48.404;-4.506;2022-11-04T10:25:10;16.14;62.64
74811;DHT22;63340;48.404;-4.506;2022-11-04T10:27:43;16.11;63.77
74811;DHT22;63340;48.404;-4.506;2022-11-04T10:30:23;16.08;63.49
74811;DHT22;63340;48.404;-4.506;2022-11-04T10:33:10;15.98;63.33
74811;DHT22;63340;48.404;-4.506;2022-11-04T10:35:45;16.01;63.95
74811;DHT22;63340;48.404;-4.506;2022-11-04T10:40:45;15.91;63.87
74811;DHT22;63340;48.404;-4.506;2022-11-04T10:43:15;15.87;63.08
74811;DHT22;63340;48.404;-4.506;2022-11-04T10:51:22;16.01;63.53
74811;DHT22;63340;48.404;-4.506;2022-11-04T10:53:59;16.12;63.16
74811;DHT22;63340;48.404;-4.506;2022-11-04T10:58:54;16.47;61.68
74811;DHT22;63340;48.404;-4.506;2022-11-04T11:03:48;16.29;61.59
74811;DHT22;63340;48.404;-4.506;2022-11-04T11:06:34;16.12;60.66
74811;DHT22;63340;48.404;-4.506;2022-11-04T11:11:42;16.10;61.01
74811;DHT22;63340;48.404;-4.506;2022-11-04T11:17:17;16.01;60.69
74811;DHT22;63340;48.404;-4.506;2022-11-04T11:22:39;16.07;60.47
74811;DHT22;63340;48.404;-4.506;2022-11-04T11:25:29;16.12;60.98
74811;DHT22;63340;48.404;-4.506;2022-11-04T11:28:09;16.17;61.38
74811;DHT22;63340;48.404;-4.506;2022-11-04T11:35:49;16.49;59.80
74811;DHT22;63340;48.404;-4.506;2022-11-04T11:40:49;16.51;58.83
74811;DHT22;63340;48.404;-4.506;2022-11-04T11:45:48;16.44;57.71
74811;DHT22;63340;48.404;-4.506;2022-11-04T11:48:34;16.49;58.28
74811;DHT22;63340;48.404;-4.506;2022-11-04T11:51:03;16.49;58.84
74811;DHT22;63340;48.404;-4.506;2022-11-04T11:53:29;16.51;58.41
74811;DHT22;63340;48.404;-4.506;2022-11-04T11:58:40;16.41;56.81
74811;DHT22;63340;48.404;-4.506;2022-11-04T12:01:16;16.47;57.83
74811;DHT22;63340;48.404;-4.506;2022-11-04T12:03:46;16.48;56.98
74811;DHT22;63340;48.404;-4.506;2022-11-04T12:14:51;16.55;57.00
74811;DHT22;63340;48.404;-4.506;2022-11-04T12:20:31;16.70;55.69
74811;DHT22;63340;48.404;-4.506;2022-11-04T12:29:36;16.65;55.12
74811;DHT22;63340;48.404;-4.506;2022-11-04T12:40:26;16.36;56.32
74811;DHT22;63340;48.404;-4.506;2022-11-04T13:57:52;16.20;54.97
74811;DHT22;63340;48.404;-4.506;2022-11-04T14:08:24;16.12;54.35
74811;DHT22;63340;48.404;-4.506;2022-11-04T14:13:40;16.28;55.53
74811;DHT22;63340;48.404;-4.506;2022-11-04T14:18:44;16.48;55.62
74811;DHT22;63340;48.404;-4.506;2022-11-04T14:21:23;16.49;55.59
74811;DHT22;63340;48.404;-4.506;2022-11-04T14:23:59;16.47;55.51
74811;DHT22;63340;48.404;-4.506;2022-11-04T14:26:54;16.45;55.55
74811;DHT22;63340;48.404;-4.506;2022-11-04T14:29:24;16.39;55.74
74811;DHT22;63340;48.404;-4.506;2022-11-04T14:31:53;16.38;55.10
74811;DHT22;63340;48.404;-4.506;2022-11-04T14:34:32;16.36;55.16
74811;DHT22;63340;48.404;-4.506;2022-11-04T14:37:01;16.28;55.50
74811;DHT22;63340;48.404;-4.506;2022-11-04T14:39:37;16.12;55.64
74811;DHT22;63340;48.404;-4.506;2022-11-04T14:42:07;16.07;56.22
74811;DHT22;63340;48.404;-4.506;2022-11-04T14:47:28;16.01;56.64
74811;DHT22;63340;48.404;-4.506;2022-11-04T14:52:34;15.94;56.74
74811;DHT22;63340;48.404;-4.506;2022-11-04T14:58:24;15.98;56.10
74811;DHT22;63340;48.404;-4.506;2022-11-04T15:00:58;16.00;56.34
74811;DHT22;63340;48.404;-4.506;2022-11-04T15:03:28;16.04;56.61
74811;DHT22;63340;48.404;-4.506;2022-11-04T15:06:02;16.02;55.90
74811;DHT22;63340;48.404;-4.506;2022-11-04T15:13:45;16.00;57.29
74811;DHT22;63340;48.404;-4.506;2022-11-04T15:16:19;16.00;57.47
74811;DHT22;63340;48.404;-4.506;2022-11-04T15:18:46;15.97;57.76
74811;DHT22;63340;48.404;-4.506;2022-11-04T15:21:12;15.90;58.01
74811;DHT22;63340;48.404;-4.506;2022-11-04T15:23:42;15.87;58.47
74811;DHT22;63340;48.404;-4.506;2022-11-04T15:28:52;15.83;58.21
74811;DHT22;63340;48.404;-4.506;2022-11-04T15:31:21;15.90;58.76
74811;DHT22;63340;48.404;-4.506;2022-11-04T15:33:52;15.90;58.24
74811;DHT22;63340;48.404;-4.506;2022-11-04T15:36:21;15.89;58.71
74811;DHT22;63340;48.404;-4.506;2022-11-04T15:38:51;15.97;58.80
74811;DHT22;63340;48.404;-4.506;2022-11-04T15:41:25;16.01;58.72
74811;DHT22;63340;48.404;-4.506;2022-11-04T15:44:25;16.04;58.37
74811;DHT22;63340;48.404;-4.506;2022-11-04T15:46:59;16.04;58.38
74811;DHT22;63340;48.404;-4.506;2022-11-04T15:49:30;16.00;57.79
74811;DHT22;63340;48.404;-4.506;2022-11-04T15:52:07;15.91;58.40
74811;DHT22;63340;48.404;-4.506;2022-11-04T15:54:41;15.87;58.88
74811;DHT22;63340;48.404;-4.506;2022-11-04T15:57:15;15.90;58.58
74811;DHT22;63340;48.404;-4.506;2022-11-04T15:59:56;15.89;58.75
74811;DHT22;63340;48.404;-4.506;2022-11-04T16:05:23;15.94;57.52
74811;DHT22;63340;48.404;-4.506;2022-11-04T16:08:22;15.94;58.21
74811;DHT22;63340;48.404;-4.506;2022-11-04T16:11:11;15.90;58.45
74811;DHT22;63340;48.404;-4.506;2022-11-04T16:13:37;15.93;58.71
74811;DHT22;63340;48.404;-4.506;2022-11-04T16:16:07;15.84;58.21
74811;DHT22;63340;48.404;-4.506;2022-11-04T16:18:57;15.80;59.00
74811;DHT22;63340;48.404;-4.506;2022-11-04T16:21:34;15.76;58.88
74811;DHT22;63340;48.404;-4.506;2022-11-04T16:24:14;15.79;58.93
74811;DHT22;63340;48.404;-4.506;2022-11-04T16:26:42;15.81;58.84
74811;DHT22;63340;48.404;-4.506;2022-11-04T16:29:17;15.84;58.84
74811;DHT22;63340;48.404;-4.506;2022-11-04T16:31:44;15.83;58.12
74811;DHT22;63340;48.404;-4.506;2022-11-04T16:34:12;15.80;57.73
74811;DHT22;63340;48.404;-4.506;2022-11-04T16:36:38;15.76;58.18
74811;DHT22;63340;48.404;-4.506;2022-11-04T16:39:07;15.71;58.43
74811;DHT22;63340;48.404;-4.506;2022-11-04T16:41:39;15.70;58.74
74811;DHT22;63340;48.404;-4.506;2022-11-04T16:44:14;15.70;58.03
74811;DHT22;63340;48.404;-4.506;2022-11-04T16:46:42;15.73;58.40
74811;DHT22;63340;48.404;-4.506;2022-11-04T16:49:13;15.73;58.64
74811;DHT22;63340;48.404;-4.506;2022-11-04T16:51:39;15.73;58.74
74811;DHT22;63340;48.404;-4.506;2022-11-04T16:54:05;15.74;58.39
74811;DHT22;63340;48.404;-4.506;2022-11-04T16:56:32;15.71;58.36
74811;DHT22;63340;48.404;-4.506;2022-11-04T16:58:57;15.66;58.00
74811;DHT22;63340;48.404;-4.506;2022-11-04T17:01:23;15.60;58.00
74811;DHT22;63340;48.404;-4.506;2022-11-04T17:03:49;15.59;58.40
74811;DHT22;63340;48.404;-4.506;2022-11-04T17:06:15;15.63;58.70
74811;DHT22;63340;48.404;-4.506;2022-11-04T17:08:41;15.60;58.90
74811;DHT22;63340;48.404;-4.506;2022-11-04T17:11:10;15.59;58.76
74811;DHT22;63340;48.404;-4.506;2022-11-04T17:13:37;15.62;58.89
74811;DHT22;63340;48.404;-4.506;2022-11-04T17:16:09;15.63;59.03
74811;DHT22;63340;48.404;-4.506;2022-11-04T17:18:35;15.62;59.15
74811;DHT22;63340;48.404;-4.506;2022-11-04T17:21:08;15.60;59.08
74811;DHT22;63340;48.404;-4.506;2022-11-04T17:23:34;15.53;58.82
74811;DHT22;63340;48.404;-4.506;2022-11-04T17:26:00;15.45;58.86
74811;DHT22;63340;48.404;-4.506;2022-11-04T17:28:25;15.40;59.12
74811;DHT22;63340;48.404;-4.506;2022-11-04T17:30:51;15.36;59.20
74811;DHT22;63340;48.404;-4.506;2022-11-04T17:33:22;15.33;59.73
74811;DHT22;63340;48.404;-4.506;2022-11-04T17:35:49;15.35;59.66
74811;DHT22;63340;48.404;-4.506;2022-11-04T17:38:16;15.36;59.62
74811;DHT22;63340;48.404;-4.506;2022-11-04T17:40:42;15.38;59.47
74811;DHT22;63340;48.404;-4.506;2022-11-04T17:43:26;15.33;59.42
74811;DHT22;63340;48.404;-4.506;2022-11-04T17:46:33;15.31;59.33
74811;DHT22;63340;48.404;-4.506;2022-11-04T17:49:08;15.28;59.62
74811;DHT22;63340;48.404;-4.506;2022-11-04T17:51:36;15.25;60.02
74811;DHT22;63340;48.404;-4.506;2022-11-04T17:54:02;15.24;59.93
74811;DHT22;63340;48.404;-4.506;2022-11-04T17:56:28;15.25;59.80
74811;DHT22;63340;48.404;-4.506;2022-11-04T17:58:53;15.24;59.84
74811;DHT22;63340;48.404;-4.506;2022-11-04T18:01:21;15.06;59.83
74811;DHT22;63340;48.404;-4.506;2022-11-04T18:03:47;14.95;60.15
74811;DHT22;63340;48.404;-4.506;2022-11-04T18:06:14;14.88;60.51
74811;DHT22;63340;48.404;-4.506;2022-11-04T18:08:39;14.78;60.78
74811;DHT22;63340;48.404;-4.506;2022-11-04T18:11:07;14.67;61.05
74811;DHT22;63340;48.404;-4.506;2022-11-04T18:13:34;14.60;61.18
74811;DHT22;63340;48.404;-4.506;2022-11-04T18:16:13;14.57;61.44
74811;DHT22;63340;48.404;-4.506;2022-11-04T18:18:39;14.57;61.59
74811;DHT22;63340;48.404;-4.506;2022-11-04T18:21:11;14.60;61.68
74811;DHT22;63340;48.404;-4.506;2022-11-04T18:23:37;14.68;61.41
74811;DHT22;63340;48.404;-4.506;2022-11-04T18:26:09;14.73;61.26
74811;DHT22;63340;48.404;-4.506;2022-11-04T18:28:38;14.68;61.40
74811;DHT22;63340;48.404;-4.506;2022-11-04T18:31:11;14.64;61.36
74811;DHT22;63340;48.404;-4.506;2022-11-04T18:33:39;14.61;61.10
74811;DHT22;63340;48.404;-4.506;2022-11-04T18:36:07;14.56;61.35
74811;DHT22;63340;48.404;-4.506;2022-11-04T18:38:33;14.55;61.59
74811;DHT22;63340;48.404;-4.506;2022-11-04T18:40:59;14.57;61.53
74811;DHT22;63340;48.404;-4.506;2022-11-04T18:43:24;14.60;61.14
74811;DHT22;63340;48.404;-4.506;2022-11-04T18:45:50;14.57;61.32
74811;DHT22;63340;48.404;-4.506;2022-11-04T18:48:35;14.57;61.65
74811;DHT22;63340;48.404;-4.506;2022-11-04T18:51:03;14.61;61.46
74811;DHT22;63340;48.404;-4.506;2022-11-04T18:53:29;14.63;61.84
74811;DHT22;63340;48.404;-4.506;2022-11-04T18:56:04;14.63;61.67
74811;DHT22;63340;48.404;-4.506;2022-11-04T18:58:31;14.63;61.65
74811;DHT22;63340;48.404;-4.506;2022-11-04T19:00:57;14.68;61.47
74811;DHT22;63340;48.404;-4.506;2022-11-04T19:03:23;14.68;61.32
74811;DHT22;63340;48.404;-4.506;2022-11-04T19:05:48;14.70;61.17
74811;DHT22;63340;48.404;-4.506;2022-11-04T19:08:14;14.68;61.02
74811;DHT22;63340;48.404;-4.506;2022-11-04T19:10:40;14.71;61.17
74811;DHT22;63340;48.404;-4.506;2022-11-04T19:13:13;14.67;61.29
74811;DHT22;63340;48.404;-4.506;2022-11-04T19:15:46;14.68;61.26
74811;DHT22;63340;48.404;-4.506;2022-11-04T19:18:13;14.67;61.32
74811;DHT22;63340;48.404;-4.506;2022-11-04T19:20:39;14.61;61.55
74811;DHT22;63340;48.404;-4.506;2022-11-04T19:23:04;14.63;61.46
74811;DHT22;63340;48.404;-4.506;2022-11-04T19:25:30;14.61;61.63
74811;DHT22;63340;48.404;-4.506;2022-11-04T19:27:56;14.61;61.81
74811;DHT22;63340;48.404;-4.506;2022-11-04T19:30:22;14.59;61.69
74811;DHT22;63340;48.404;-4.506;2022-11-04T19:32:47;14.57;61.82
74811;DHT22;63340;48.404;-4.506;2022-11-04T19:35:19;14.59;61.90
74811;DHT22;63340;48.404;-4.506;2022-11-04T19:37:45;14.57;61.87
74811;DHT22;63340;48.404;-4.506;2022-11-04T19:40:15;14.61;61.86
74811;DHT22;63340;48.404;-4.506;2022-11-04T19:42:40;14.60;61.78
74811;DHT22;63340;48.404;-4.506;2022-11-04T19:45:25;14.51;62.12
74811;DHT22;63340;48.404;-4.506;2022-11-04T19:48:00;14.46;62.51
74811;DHT22;63340;48.404;-4.506;2022-11-04T19:50:31;14.36;63.00
74811;DHT22;63340;48.404;-4.506;2022-11-04T19:53:03;14.32;63.11
74811;DHT22;63340;48.404;-4.506;2022-11-04T19:55:29;14.33;63.21
74811;DHT22;63340;48.404;-4.506;2022-11-04T19:57:59;14.40;63.13
74811;DHT22;63340;48.404;-4.506;2022-11-04T20:00:29;14.46;62.88
74811;DHT22;63340;48.404;-4.506;2022-11-04T20:03:01;14.50;62.91
74811;DHT22;63340;48.404;-4.506;2022-11-04T20:05:41;14.47;63.00
74811;DHT22;63340;48.404;-4.506;2022-11-04T20:08:12;14.49;63.00
74811;DHT22;63340;48.404;-4.506;2022-11-04T20:10:43;14.39;63.26
74811;DHT22;63340;48.404;-4.506;2022-11-04T20:13:21;14.37;63.65
74811;DHT22;63340;48.404;-4.506;2022-11-04T20:16:21;14.39;63.58
74811;DHT22;63340;48.404;-4.506;2022-11-04T20:18:52;14.37;63.68
74811;DHT22;63340;48.404;-4.506;2022-11-04T20:21:28;14.33;63.91
74811;DHT22;63340;48.404;-4.506;2022-11-04T20:24:03;14.29;64.14
74811;DHT22;63340;48.404;-4.506;2022-11-04T20:26:30;14.30;63.87
74811;DHT22;63340;48.404;-4.506;2022-11-04T20:28:57;14.37;63.91
74811;DHT22;63340;48.404;-4.506;2022-11-04T20:31:25;14.40;63.70
74811;DHT22;63340;48.404;-4.506;2022-11-04T20:33:54;14.43;63.82
74811;DHT22;63340;48.404;-4.506;2022-11-04T20:36:25;14.41;63.97
74811;DHT22;63340;48.404;-4.506;2022-11-04T20:39:06;14.37;63.93
74811;DHT22;63340;48.404;-4.506;2022-11-04T20:41:35;14.39;63.73
74811;DHT22;63340;48.404;-4.506;2022-11-04T20:44:06;14.36;63.91
74811;DHT22;63340;48.404;-4.506;2022-11-04T20:46:41;14.34;64.05
74811;DHT22;63340;48.404;-4.506;2022-11-04T20:49:12;14.36;64.07
74811;DHT22;63340;48.404;-4.506;2022-11-04T20:51:42;14.34;64.23
74811;DHT22;63340;48.404;-4.506;2022-11-04T20:54:14;14.34;64.18
74811;DHT22;63340;48.404;-4.506;2022-11-04T20:56:45;14.33;64.23
74811;DHT22;63340;48.404;-4.506;2022-11-04T20:59:12;14.33;64.45
74811;DHT22;63340;48.404;-4.506;2022-11-04T21:01:43;14.32;64.32
74811;DHT22;63340;48.404;-4.506;2022-11-04T21:04:15;14.29;64.53
74811;DHT22;63340;48.404;-4.506;2022-11-04T21:07:13;14.32;64.36
74811;DHT22;63340;48.404;-4.506;2022-11-04T21:09:46;14.30;64.44
74811;DHT22;63340;48.404;-4.506;2022-11-04T21:15:42;14.33;64.29
74811;DHT22;63340;48.404;-4.506;2022-11-04T21:18:20;14.34;64.25
74811;DHT22;63340;48.404;-4.506;2022-11-04T21:20:49;14.33;64.10
74811;DHT22;63340;48.404;-4.506;2022-11-04T21:23:29;14.33;64.01
74811;DHT22;63340;48.404;-4.506;2022-11-04T21:26:02;14.34;63.87
74811;DHT22;63340;48.404;-4.506;2022-11-04T21:28:28;14.36;63.89
74811;DHT22;63340;48.404;-4.506;2022-11-04T21:30:53;14.39;63.83
74811;DHT22;63340;48.404;-4.506;2022-11-04T21:33:19;14.37;63.70
74811;DHT22;63340;48.404;-4.506;2022-11-04T21:35:45;14.41;63.74
74811;DHT22;63340;48.404;-4.506;2022-11-04T21:38:15;14.37;63.62
74811;DHT22;63340;48.404;-4.506;2022-11-04T21:40:42;14.37;63.60
74811;DHT22;63340;48.404;-4.506;2022-11-04T21:43:08;14.37;63.76
74811;DHT22;63340;48.404;-4.506;2022-11-04T21:45:34;14.37;63.67
74811;DHT22;63340;48.404;-4.506;2022-11-04T21:48:00;14.40;63.60
74811;DHT22;63340;48.404;-4.506;2022-11-04T21:50:26;14.37;63.70
74811;DHT22;63340;48.404;-4.506;2022-11-04T21:52:52;14.34;64.01
74811;DHT22;63340;48.404;-4.506;2022-11-04T21:55:20;14.34;64.21
74811;DHT22;63340;48.404;-4.506;2022-11-04T21:57:46;14.26;64.25
74811;DHT22;63340;48.404;-4.506;2022-11-04T22:00:12;14.23;64.43
74811;DHT22;63340;48.404;-4.506;2022-11-04T22:02:41;14.25;64.50
74811;DHT22;63340;48.404;-4.506;2022-11-04T22:05:07;14.28;64.72
74811;DHT22;63340;48.404;-4.506;2022-11-04T22:07:34;14.28;64.63
74811;DHT22;63340;48.404;-4.506;2022-11-04T22:10:34;14.28;64.77
74811;DHT22;63340;48.404;-4.506;2022-11-04T22:13:00;14.30;64.77
74811;DHT22;63340;48.404;-4.506;2022-11-04T22:15:25;14.33;64.78
74811;DHT22;63340;48.404;-4.506;2022-11-04T22:18:09;14.39;64.66
74811;DHT22;63340;48.404;-4.506;2022-11-04T22:20:35;14.37;64.78
74811;DHT22;63340;48.404;-4.506;2022-11-04T22:23:01;14.36;64.86
74811;DHT22;63340;48.404;-4.506;2022-11-04T22:25:28;14.34;64.72
74811;DHT22;63340;48.404;-4.506;2022-11-04T22:27:56;14.32;64.94
74811;DHT22;63340;48.404;-4.506;2022-11-04T22:30:24;14.36;64.89
74811;DHT22;63340;48.404;-4.506;2022-11-04T22:32:51;14.39;64.97
74811;DHT22;63340;48.404;-4.506;2022-11-04T22:35:38;14.40;64.92
74811;DHT22;63340;48.404;-4.506;2022-11-04T22:38:10;14.36;65.15
74811;DHT22;63340;48.404;-4.506;2022-11-04T22:40:40;14.29;65.29
74811;DHT22;63340;48.404;-4.506;2022-11-04T22:43:08;14.20;65.61
74811;DHT22;63340;48.404;-4.506;2022-11-04T22:45:36;14.16;65.77
74811;DHT22;63340;48.404;-4.506;2022-11-04T22:48:02;14.09;65.65
74811;DHT22;63340;48.404;-4.506;2022-11-04T22:50:27;14.09;65.91
74811;DHT22;63340;48.404;-4.506;2022-11-04T22:52:56;14.13;65.85
74811;DHT22;63340;48.404;-4.506;2022-11-04T22:55:22;14.18;65.68
74811;DHT22;63340;48.404;-4.506;2022-11-04T22:57:48;14.19;65.74
74811;DHT22;63340;48.404;-4.506;2022-11-04T23:00:14;14.23;65.75
74811;DHT22;63340;48.404;-4.506;2022-11-04T23:02:40;14.28;65.71
74811;DHT22;63340;48.404;-4.506;2022-11-04T23:05:06;14.23;65.87
74811;DHT22;63340;48.404;-4.506;2022-11-04T23:07:32;14.28;65.77
74811;DHT22;63340;48.404;-4.506;2022-11-04T23:09:58;14.30;65.77
74811;DHT22;63340;48.404;-4.506;2022-11-04T23:12:43;14.36;65.73
74811;DHT22;63340;48.404;-4.506;2022-11-04T23:15:30;14.34;65.81
74811;DHT22;63340;48.404;-4.506;2022-11-04T23:18:14;14.34;65.87
74811;DHT22;63340;48.404;-4.506;2022-11-04T23:21:02;14.37;65.75
74811;DHT22;63340;48.404;-4.506;2022-11-04T23:23:49;14.41;65.65
74811;DHT22;63340;48.404;-4.506;2022-11-04T23:26:34;14.41;65.86
74811;DHT22;63340;48.404;-4.506;2022-11-04T23:29:00;14.43;65.95
74811;DHT22;63340;48.404;-4.506;2022-11-04T23:31:47;14.44;65.92
74811;DHT22;63340;48.404;-4.506;2022-11-04T23:34:13;14.43;65.96
74811;DHT22;63340;48.404;-4.506;2022-11-04T23:36:57;14.43;66.10
74811;DHT22;63340;48.404;-4.506;2022-11-04T23:42:10;14.49;66.07
74811;DHT22;63340;48.404;-4.506;2022-11-04T23:44:55;14.55;65.88
74811;DHT22;63340;48.404;-4.506;2022-11-04T23:47:43;14.56;65.96
74811;DHT22;63340;48.404;-4.506;2022-11-04T23:50:30;14.57;65.74
74811;DHT22;63340;48.404;-4.506;2022-11-04T23:53:17;14.61;65.65
74811;DHT22;63340;48.404;-4.506;2022-11-04T23:56:02;14.59;65.81
74811;DHT22;63340;48.404;-4.506;2022-11-04T23:58:46;14.55;66.11
